sensor_id;sensor_type;location;lat;lon;timestamp;P1;P4;P2;P0;N10;N4;N25;N1;N05;TS
78766;SPS30;68092;51.982;5.680;2023-11-19T00:00:23;6.1;6.1;6.1;5.8;;;;3.0;169.0;
78766;SPS30;68092;51.982;5.680;2023-11-19T00:02:54;5.4;5.4;5.4;5.2;;;;3.0;167.0;
78766;SPS30;68092;51.982;5.680;2023-11-19T00:05:22;5.5;5.5;5.5;5.2;;;;3.0;165.0;
78766;SPS30;68092;51.982;5.680;2023-11-19T00:07:51;6.1;6.1;6.1;5.8;;;;3.0;166.0;
78766;SPS30;68092;51.982;5.680;2023-11-19T00:10:20;5.8;5.8;5.8;5.5;;;;3.0;165.0;
78766;SPS30;68092;51.982;5.680;2023-11-19T00:12:49;5.5;5.5;5.5;5.2;;;;3.0;162.0;
78766;SPS30;68092;51.982;5.680;2023-11-19T00:15:18;5.0;5.0;5.0;4.8;;;;3.0;162.0;
78766;SPS30;68092;51.982;5.680;2023-11-19T00:17:47;4.9;4.9;4.9;4.7;;;;3.0;154.0;
78766;SPS30;68092;51.982;5.680;2023-11-19T00:20:16;4.2;4.2;4.2;4.0;;;;3.0;152.0;
78766;SPS30;68092;51.982;5.680;2023-11-19T00:22:48;5.0;5.0;5.0;4.8;;;;3.0;152.0;
78766;SPS30;68092;51.982;5.680;2023-11-19T00:25:19;4.5;4.5;4.5;4.3;;;;3.0;152.0;
78766;SPS30;68092;51.982;5.680;2023-11-19T00:27:49;4.9;4.9;4.9;4.6;;;;3.0;151.0;
78766;SPS30;68092;51.982;5.680;2023-11-19T00:30:19;4.2;4.2;4.2;4.0;;;;3.0;149.0;
78766;SPS30;68092;51.982;5.680;2023-11-19T00:32:48;3.9;3.9;3.9;3.7;;;;3.0;149.0;
78766;SPS30;68092;51.982;5.680;2023-11-19T00:35:16;4.3;4.3;4.3;4.1;;;;3.0;149.0;
78766;SPS30;68092;51.982;5.680;2023-11-19T00:37:45;4.5;4.4;4.2;3.8;;;;3.0;141.0;
78766;SPS30;68092;51.982;5.680;2023-11-19T00:40:15;5.1;4.9;4.7;4.2;;;;3.0;140.0;
78766;SPS30;68092;51.982;5.680;2023-11-19T00:42:44;4.7;4.6;4.4;4.0;;;;3.0;141.0;
78766;SPS30;68092;51.982;5.680;2023-11-19T00:45:13;4.7;4.6;4.4;4.0;;;;3.0;157.0;
78766;SPS30;68092;51.982;5.680;2023-11-19T00:47:42;4.8;4.7;4.4;3.9;;;;3.0;151.0;
78766;SPS30;68092;51.982;5.680;2023-11-19T00:50:11;4.9;4.8;4.4;3.9;;;;3.0;143.0;
78766;SPS30;68092;51.982;5.680;2023-11-19T00:52:40;4.8;4.6;4.3;3.8;;;;3.0;140.0;
78766;SPS30;68092;51.982;5.680;2023-11-19T00:55:09;5.0;4.8;4.4;3.8;;;;3.0;140.0;
78766;SPS30;68092;51.982;5.680;2023-11-19T00:57:37;5.4;5.3;5.0;4.4;;;;3.0;140.0;
78766;SPS30;68092;51.982;5.680;2023-11-19T01:00:07;5.6;5.5;5.1;4.4;;;;3.0;138.0;
78766;SPS30;68092;51.982;5.680;2023-11-19T01:02:42;5.8;5.6;5.1;4.4;;;;3.0;136.0;
78766;SPS30;68092;51.982;5.680;2023-11-19T01:05:11;4.9;4.7;4.3;3.7;;;;3.0;135.0;
78766;SPS30;68092;51.982;5.680;2023-11-19T01:07:41;4.7;4.6;4.3;3.7;;;;3.0;138.0;
78766;SPS30;68092;51.982;5.680;2023-11-19T01:10:11;4.5;4.4;4.1;3.6;;;;3.0;137.0;
78766;SPS30;68092;51.982;5.680;2023-11-19T01:12:39;4.8;4.6;4.2;3.6;;;;3.0;129.0;
78766;SPS30;68092;51.982;5.680;2023-11-19T01:15:08;5.5;5.3;4.7;3.9;;;;3.0;133.0;
78766;SPS30;68092;51.982;5.680;2023-11-19T01:17:38;6.0;5.6;5.0;4.0;;;;3.0;138.0;
78766;SPS30;68092;51.982;5.680;2023-11-19T01:20:07;5.8;5.5;4.9;4.0;;;;3.0;138.0;
78766;SPS30;68092;51.982;5.680;2023-11-19T01:22:39;5.1;4.8;4.2;3.4;;;;3.0;136.0;
78766;SPS30;68092;51.982;5.680;2023-11-19T01:25:08;5.4;5.1;4.4;3.5;;;;3.0;130.0;
78766;SPS30;68092;51.982;5.680;2023-11-19T01:27:37;6.4;6.0;5.2;4.2;;;;3.0;131.0;
78766;SPS30;68092;51.982;5.680;2023-11-19T01:30:06;5.8;5.4;4.7;3.6;;;;3.0;136.0;
78766;SPS30;68092;51.982;5.680;2023-11-19T01:32:35;6.2;5.8;4.9;3.7;;;;3.0;135.0;
78766;SPS30;68092;51.982;5.680;2023-11-19T01:35:05;6.0;5.6;4.8;3.7;;;;3.0;136.0;
78766;SPS30;68092;51.982;5.680;2023-11-19T01:37:34;6.3;5.9;5.0;3.7;;;;3.0;135.0;
78766;SPS30;68092;51.982;5.680;2023-11-19T01:40:03;6.5;6.1;5.1;3.8;;;;3.0;131.0;
78766;SPS30;68092;51.982;5.680;2023-11-19T01:42:37;5.7;5.3;4.6;3.5;;;;3.0;131.0;
78766;SPS30;68092;51.982;5.680;2023-11-19T01:45:08;6.2;5.7;4.8;3.6;;;;3.0;129.0;
78766;SPS30;68092;51.982;5.680;2023-11-19T01:47:36;6.1;5.7;4.9;3.7;;;;3.0;128.0;
78766;SPS30;68092;51.982;5.680;2023-11-19T01:50:07;7.2;6.7;5.6;4.2;;;;3.0;117.0;
78766;SPS30;68092;51.982;5.680;2023-11-19T01:52:38;7.1;6.6;5.4;3.8;;;;3.0;115.0;
78766;SPS30;68092;51.982;5.680;2023-11-19T01:55:08;7.3;6.7;5.6;4.0;;;;3.0;116.0;
78766;SPS30;68092;51.982;5.680;2023-11-19T01:57:39;7.4;6.8;5.6;3.9;;;;3.0;124.0;
78766;SPS30;68092;51.982;5.680;2023-11-19T02:00:09;7.2;6.6;5.4;3.8;;;;3.0;125.0;
78766;SPS30;68092;51.982;5.680;2023-11-19T02:02:40;7.6;7.0;5.6;3.7;;;;3.0;124.0;
78766;SPS30;68092;51.982;5.680;2023-11-19T02:05:10;8.1;7.4;5.8;3.7;;;;3.0;120.0;
78766;SPS30;68092;51.982;5.680;2023-11-19T02:07:40;8.1;7.3;5.7;3.7;;;;3.0;117.0;
78766;SPS30;68092;51.982;5.680;2023-11-19T02:10:09;8.5;7.7;5.9;3.6;;;;4.0;116.0;
78766;SPS30;68092;51.982;5.680;2023-11-19T02:12:41;7.9;7.2;5.6;3.6;;;;4.0;113.0;
78766;SPS30;68092;51.982;5.680;2023-11-19T02:15:11;9.4;8.6;6.7;4.3;;;;4.0;114.0;
78766;SPS30;68092;51.982;5.680;2023-11-19T02:17:40;8.8;8.0;6.2;4.0;;;;4.0;115.0;
78766;SPS30;68092;51.982;5.680;2023-11-19T02:20:09;10.4;9.4;7.1;4.3;;;;4.0;109.0;
78766;SPS30;68092;51.982;5.680;2023-11-19T02:22:41;10.0;8.9;6.6;3.7;;;;4.0;107.0;
78766;SPS30;68092;51.982;5.680;2023-11-19T02:25:12;10.6;9.5;7.0;3.9;;;;4.0;105.0;
78766;SPS30;68092;51.982;5.680;2023-11-19T02:27:56;9.8;8.7;6.3;3.5;;;;4.0;101.0;
78766;SPS30;68092;51.982;5.680;2023-11-19T02:30:27;10.2;9.0;6.5;3.5;;;;4.0;100.0;
78766;SPS30;68092;51.982;5.680;2023-11-19T02:32:58;10.1;9.0;6.5;3.6;;;;4.0;99.0;
78766;SPS30;68092;51.982;5.680;2023-11-19T02:35:31;10.4;9.2;6.7;3.6;;;;4.0;101.0;
78766;SPS30;68092;51.982;5.680;2023-11-19T02:38:01;10.6;9.4;6.8;3.6;;;;4.0;101.0;
78766;SPS30;68092;51.982;5.680;2023-11-19T02:40:32;11.1;9.8;7.0;3.6;;;;4.0;99.0;
78766;SPS30;68092;51.982;5.680;2023-11-19T02:43:01;12.0;10.7;7.8;4.3;;;;4.0;96.0;
78766;SPS30;68092;51.982;5.680;2023-11-19T02:45:32;11.8;10.4;7.4;3.8;;;;4.0;95.0;
78766;SPS30;68092;51.982;5.680;2023-11-19T02:48:02;16.6;14.5;10.1;4.7;;;;4.0;87.0;
78766;SPS30;68092;51.982;5.680;2023-11-19T02:50:32;14.0;12.3;8.7;4.2;;;;4.0;87.0;
78766;SPS30;68092;51.982;5.680;2023-11-19T02:53:03;13.3;11.7;8.3;4.2;;;;4.0;87.0;
78766;SPS30;68092;51.982;5.680;2023-11-19T02:55:32;13.4;11.8;8.4;4.2;;;;4.0;88.0;
78766;SPS30;68092;51.982;5.680;2023-11-19T02:58:04;13.3;11.7;8.1;3.9;;;;4.0;91.0;
78766;SPS30;68092;51.982;5.680;2023-11-19T03:00:39;14.0;12.3;8.7;4.2;;;;4.0;88.0;
78766;SPS30;68092;51.982;5.680;2023-11-19T03:03:13;15.0;13.2;9.2;4.3;;;;4.0;87.0;
78766;SPS30;68092;51.982;5.680;2023-11-19T03:05:46;14.1;12.4;8.7;4.2;;;;4.0;82.0;
78766;SPS30;68092;51.982;5.680;2023-11-19T03:08:16;16.4;14.2;9.7;4.3;;;;4.0;80.0;
78766;SPS30;68092;51.982;5.680;2023-11-19T03:10:44;12.0;10.5;7.3;3.4;;;;4.0;78.0;
78766;SPS30;68092;51.982;5.680;2023-11-19T03:13:15;15.8;13.8;9.6;4.4;;;;4.0;78.0;
78766;SPS30;68092;51.982;5.680;2023-11-19T03:15:45;13.6;12.0;8.4;4.1;;;;5.0;67.0;
78766;SPS30;68092;51.982;5.680;2023-11-19T03:18:13;15.4;13.4;9.2;4.1;;;;5.0;69.0;
78766;SPS30;68092;51.982;5.680;2023-11-19T03:20:42;13.0;11.4;7.9;3.8;;;;5.0;75.0;
78766;SPS30;68092;51.982;5.680;2023-11-19T03:23:13;15.0;13.1;9.1;4.3;;;;5.0;77.0;
78766;SPS30;68092;51.982;5.680;2023-11-19T03:25:41;18.2;15.9;11.0;5.0;;;;5.0;77.0;
78766;SPS30;68092;51.982;5.680;2023-11-19T03:28:10;16.2;14.2;9.8;4.5;;;;5.0;77.0;
78766;SPS30;68092;51.982;5.680;2023-11-19T03:30:39;15.9;13.9;9.7;4.6;;;;5.0;74.0;
78766;SPS30;68092;51.982;5.680;2023-11-19T03:33:07;14.7;12.9;9.0;4.3;;;;5.0;74.0;
78766;SPS30;68092;51.982;5.680;2023-11-19T03:35:36;15.3;13.4;9.3;4.3;;;;5.0;73.0;
78766;SPS30;68092;51.982;5.680;2023-11-19T03:38:07;15.5;13.6;9.4;4.4;;;;5.0;73.0;
78766;SPS30;68092;51.982;5.680;2023-11-19T03:40:37;14.7;12.9;9.0;4.3;;;;5.0;74.0;
78766;SPS30;68092;51.982;5.680;2023-11-19T03:43:07;16.1;14.1;9.8;4.7;;;;5.0;73.0;
78766;SPS30;68092;51.982;5.680;2023-11-19T03:45:35;15.4;13.5;9.5;4.6;;;;5.0;68.0;
78766;SPS30;68092;51.982;5.680;2023-11-19T03:48:04;14.7;12.9;9.0;4.3;;;;5.0;68.0;
78766;SPS30;68092;51.982;5.680;2023-11-19T03:50:33;14.7;12.9;9.1;4.5;;;;5.0;68.0;
78766;SPS30;68092;51.982;5.680;2023-11-19T03:53:03;15.3;13.4;9.5;4.7;;;;5.0;68.0;
78766;SPS30;68092;51.982;5.680;2023-11-19T03:55:31;15.3;13.4;9.3;4.4;;;;5.0;66.0;
78766;SPS30;68092;51.982;5.680;2023-11-19T03:58:00;14.3;12.6;9.0;4.5;;;;5.0;69.0;
78766;SPS30;68092;51.982;5.680;2023-11-19T04:00:29;20.0;17.5;12.1;5.7;;;;5.0;69.0;
78766;SPS30;68092;51.982;5.680;2023-11-19T04:02:57;17.8;15.5;10.6;4.7;;;;5.0;69.0;
78766;SPS30;68092;51.982;5.680;2023-11-19T04:05:26;13.4;11.7;8.2;3.9;;;;5.0;68.0;
78766;SPS30;68092;51.982;5.680;2023-11-19T04:07:55;15.3;13.4;9.4;4.6;;;;5.0;67.0;
78766;SPS30;68092;51.982;5.680;2023-11-19T04:10:23;17.0;14.9;10.4;4.9;;;;5.0;65.0;
78766;SPS30;68092;51.982;5.680;2023-11-19T04:12:53;15.0;13.3;9.5;4.9;;;;5.0;64.0;
78766;SPS30;68092;51.982;5.680;2023-11-19T04:15:22;16.4;14.6;10.7;5.9;;;;5.0;65.0;
78766;SPS30;68092;51.982;5.680;2023-11-19T04:17:51;17.2;15.3;11.3;6.2;;;;5.0;62.0;
78766;SPS30;68092;51.982;5.680;2023-11-19T04:20:19;19.4;17.6;13.6;8.7;;;;6.0;62.0;
78766;SPS30;68092;51.982;5.680;2023-11-19T04:22:49;15.2;13.9;11.1;7.4;;;;6.0;61.0;
78766;SPS30;68092;51.982;5.680;2023-11-19T04:25:18;14.6;13.3;10.5;6.9;;;;6.0;62.0;
78766;SPS30;68092;51.982;5.680;2023-11-19T04:27:47;14.7;13.2;10.0;6.0;;;;6.0;61.0;
78766;SPS30;68092;51.982;5.680;2023-11-19T04:30:15;15.6;13.9;10.3;5.9;;;;6.0;60.0;
78766;SPS30;68092;51.982;5.680;2023-11-19T04:32:44;17.3;15.3;11.0;5.7;;;;6.0;58.0;
78766;SPS30;68092;51.982;5.680;2023-11-19T04:35:14;16.5;14.5;10.3;5.3;;;;6.0;57.0;
78766;SPS30;68092;51.982;5.680;2023-11-19T04:37:43;16.8;14.8;10.3;5.0;;;;6.0;51.0;
78766;SPS30;68092;51.982;5.680;2023-11-19T04:40:13;21.2;18.5;12.7;5.7;;;;6.0;50.0;
78766;SPS30;68092;51.982;5.680;2023-11-19T04:42:44;19.0;16.6;11.4;5.1;;;;7.0;48.0;
78766;SPS30;68092;51.982;5.680;2023-11-19T04:45:12;17.0;14.8;10.2;4.5;;;;7.0;47.0;
78766;SPS30;68092;51.982;5.680;2023-11-19T04:47:42;19.2;16.8;11.4;4.9;;;;7.0;48.0;
78766;SPS30;68092;51.982;5.680;2023-11-19T04:50:12;17.6;15.4;10.6;4.8;;;;7.0;50.0;
78766;SPS30;68092;51.982;5.680;2023-11-19T04:52:43;17.5;15.2;10.4;4.7;;;;7.0;50.0;
78766;SPS30;68092;51.982;5.680;2023-11-19T04:55:14;21.4;18.6;12.5;5.3;;;;8.0;49.0;
78766;SPS30;68092;51.982;5.680;2023-11-19T04:57:42;18.6;16.2;11.0;4.7;;;;8.0;47.0;
78766;SPS30;68092;51.982;5.680;2023-11-19T05:00:14;19.0;16.6;11.4;5.1;;;;8.0;47.0;
78766;SPS30;68092;51.982;5.680;2023-11-19T05:02:42;19.8;17.3;12.0;5.5;;;;8.0;46.0;
78766;SPS30;68092;51.982;5.680;2023-11-19T05:05:11;18.4;16.1;11.2;5.2;;;;8.0;45.0;
78766;SPS30;68092;51.982;5.680;2023-11-19T05:07:40;16.3;14.2;9.7;4.3;;;;8.0;49.0;
78766;SPS30;68092;51.982;5.680;2023-11-19T05:10:09;19.9;17.4;12.0;5.5;;;;8.0;53.0;
78766;SPS30;68092;51.982;5.680;2023-11-19T05:12:38;16.7;14.6;10.1;4.7;;;;8.0;52.0;
78766;SPS30;68092;51.982;5.680;2023-11-19T05:15:07;16.6;14.4;9.9;4.4;;;;8.0;50.0;
78766;SPS30;68092;51.982;5.680;2023-11-19T05:17:39;17.7;15.5;10.6;4.8;;;;8.0;50.0;
78766;SPS30;68092;51.982;5.680;2023-11-19T05:20:08;16.5;14.4;10.0;4.6;;;;9.0;50.0;
78766;SPS30;68092;51.982;5.680;2023-11-19T05:22:39;17.6;15.4;10.6;4.8;;;;9.0;53.0;
78766;SPS30;68092;51.982;5.680;2023-11-19T05:25:10;17.1;14.9;10.3;4.8;;;;9.0;53.0;
78766;SPS30;68092;51.982;5.680;2023-11-19T05:27:38;18.7;16.3;11.2;5.0;;;;9.0;53.0;
78766;SPS30;68092;51.982;5.680;2023-11-19T05:30:08;17.9;15.7;10.9;5.1;;;;9.0;52.0;
78766;SPS30;68092;51.982;5.680;2023-11-19T05:32:36;17.8;15.6;10.7;4.9;;;;9.0;54.0;
78766;SPS30;68092;51.982;5.680;2023-11-19T05:35:06;17.5;15.3;10.6;4.9;;;;9.0;55.0;
78766;SPS30;68092;51.982;5.680;2023-11-19T05:37:37;17.6;15.4;10.7;5.1;;;;9.0;55.0;
78766;SPS30;68092;51.982;5.680;2023-11-19T05:40:07;18.1;15.8;11.0;5.1;;;;9.0;60.0;
78766;SPS30;68092;51.982;5.680;2023-11-19T05:42:40;17.2;15.1;10.6;5.2;;;;8.0;57.0;
78766;SPS30;68092;51.982;5.680;2023-11-19T05:45:10;16.0;14.0;9.8;4.6;;;;9.0;55.0;
78766;SPS30;68092;51.982;5.680;2023-11-19T05:47:45;18.1;15.9;11.0;5.1;;;;9.0;52.0;
78766;SPS30;68092;51.982;5.680;2023-11-19T05:50:13;15.9;13.9;9.6;4.3;;;;9.0;49.0;
78766;SPS30;68092;51.982;5.680;2023-11-19T05:52:42;18.7;16.4;11.4;5.4;;;;9.0;49.0;
78766;SPS30;68092;51.982;5.680;2023-11-19T05:55:10;16.0;14.0;9.6;4.4;;;;9.0;49.0;
78766;SPS30;68092;51.982;5.680;2023-11-19T05:57:40;19.0;16.6;11.3;5.0;;;;9.0;48.0;
78766;SPS30;68092;51.982;5.680;2023-11-19T06:00:09;18.8;16.4;11.2;4.9;;;;9.0;47.0;
78766;SPS30;68092;51.982;5.680;2023-11-19T06:02:39;18.4;16.1;11.0;5.0;;;;10.0;48.0;
78766;SPS30;68092;51.982;5.680;2023-11-19T06:05:09;20.1;17.6;12.2;5.7;;;;10.0;48.0;
78766;SPS30;68092;51.982;5.680;2023-11-19T06:07:40;15.7;13.7;9.5;4.4;;;;10.0;48.0;
78766;SPS30;68092;51.982;5.680;2023-11-19T06:10:08;21.1;18.5;12.7;5.7;;;;10.0;48.0;
78766;SPS30;68092;51.982;5.680;2023-11-19T06:12:42;19.1;16.7;11.4;5.1;;;;10.0;47.0;
78766;SPS30;68092;51.982;5.680;2023-11-19T06:15:13;18.2;15.9;10.9;4.9;;;;10.0;47.0;
78766;SPS30;68092;51.982;5.680;2023-11-19T06:17:42;17.8;15.6;10.6;4.7;;;;10.0;50.0;
78766;SPS30;68092;51.982;5.680;2023-11-19T06:20:13;18.8;16.4;11.2;5.0;;;;10.0;52.0;
78766;SPS30;68092;51.982;5.680;2023-11-19T06:22:46;19.5;17.0;11.5;5.0;;;;10.0;52.0;
78766;SPS30;68092;51.982;5.680;2023-11-19T06:25:16;17.5;15.3;10.5;4.7;;;;10.0;50.0;
78766;SPS30;68092;51.982;5.680;2023-11-19T06:27:45;18.9;16.5;11.3;5.1;;;;10.0;48.0;
78766;SPS30;68092;51.982;5.680;2023-11-19T06:30:14;19.5;17.0;11.6;5.2;;;;10.0;49.0;
78766;SPS30;68092;51.982;5.680;2023-11-19T06:32:42;17.4;15.2;10.4;4.6;;;;10.0;49.0;
78766;SPS30;68092;51.982;5.680;2023-11-19T06:35:11;20.7;18.0;12.2;5.2;;;;10.0;49.0;
78766;SPS30;68092;51.982;5.680;2023-11-19T06:37:40;18.1;15.8;10.7;4.5;;;;10.0;47.0;
78766;SPS30;68092;51.982;5.680;2023-11-19T06:40:12;18.7;16.3;11.1;4.9;;;;10.0;47.0;
78766;SPS30;68092;51.982;5.680;2023-11-19T06:42:42;19.0;16.6;11.4;5.1;;;;10.0;46.0;
78766;SPS30;68092;51.982;5.680;2023-11-19T06:45:11;18.8;16.5;11.4;5.2;;;;10.0;46.0;
78766;SPS30;68092;51.982;5.680;2023-11-19T06:47:40;20.3;17.7;12.1;5.3;;;;10.0;46.0;
78766;SPS30;68092;51.982;5.680;2023-11-19T06:50:11;16.7;14.6;9.9;4.3;;;;10.0;49.0;
78766;SPS30;68092;51.982;5.680;2023-11-19T06:52:44;18.9;16.5;11.1;4.8;;;;10.0;49.0;
78766;SPS30;68092;51.982;5.680;2023-11-19T06:55:16;19.2;16.7;11.3;4.8;;;;10.0;49.0;
78766;SPS30;68092;51.982;5.680;2023-11-19T06:57:45;17.1;14.9;10.3;4.7;;;;10.0;49.0;
78766;SPS30;68092;51.982;5.680;2023-11-19T07:00:21;20.0;17.4;11.8;5.2;;;;10.0;50.0;
78766;SPS30;68092;51.982;5.680;2023-11-19T07:02:49;19.1;16.7;11.5;5.2;;;;10.0;51.0;
78766;SPS30;68092;51.982;5.680;2023-11-19T07:05:18;19.0;16.6;11.4;5.2;;;;10.0;50.0;
78766;SPS30;68092;51.982;5.680;2023-11-19T07:07:47;20.2;17.6;12.0;5.2;;;;10.0;50.0;
78766;SPS30;68092;51.982;5.680;2023-11-19T07:10:15;18.0;15.7;10.7;4.8;;;;10.0;57.0;
78766;SPS30;68092;51.982;5.680;2023-11-19T07:12:44;22.6;19.7;13.4;5.8;;;;10.0;56.0;
78766;SPS30;68092;51.982;5.680;2023-11-19T07:15:16;21.0;18.3;12.5;5.5;;;;10.0;56.0;
78766;SPS30;68092;51.982;5.680;2023-11-19T07:17:48;17.6;15.5;10.8;5.1;;;;10.0;56.0;
78766;SPS30;68092;51.982;5.680;2023-11-19T07:20:17;17.6;15.4;10.5;4.7;;;;10.0;65.0;
78766;SPS30;68092;51.982;5.680;2023-11-19T07:22:49;17.8;15.6;10.8;5.0;;;;10.0;70.0;
78766;SPS30;68092;51.982;5.680;2023-11-19T07:25:17;20.1;17.4;11.7;4.9;;;;10.0;70.0;
78766;SPS30;68092;51.982;5.680;2023-11-19T07:27:46;19.3;16.8;11.3;4.7;;;;9.0;69.0;
78766;SPS30;68092;51.982;5.680;2023-11-19T07:30:15;18.3;16.0;10.9;4.9;;;;9.0;67.0;
78766;SPS30;68092;51.982;5.680;2023-11-19T07:32:44;16.9;14.8;10.1;4.5;;;;9.0;64.0;
78766;SPS30;68092;51.982;5.680;2023-11-19T07:35:12;18.4;16.0;10.9;4.8;;;;9.0;61.0;
78766;SPS30;68092;51.982;5.680;2023-11-19T07:37:41;19.8;17.3;11.7;5.1;;;;9.0;60.0;
78766;SPS30;68092;51.982;5.680;2023-11-19T07:40:12;17.8;15.6;10.8;5.0;;;;9.0;61.0;
78766;SPS30;68092;51.982;5.680;2023-11-19T07:42:41;22.6;19.7;13.5;6.0;;;;9.0;61.0;
78766;SPS30;68092;51.982;5.680;2023-11-19T07:45:10;19.0;16.5;11.1;4.7;;;;9.0;58.0;
78766;SPS30;68092;51.982;5.680;2023-11-19T07:47:39;20.6;17.9;12.2;5.3;;;;10.0;58.0;
78766;SPS30;68092;51.982;5.680;2023-11-19T07:50:08;17.3;15.0;10.3;4.5;;;;10.0;56.0;
78766;SPS30;68092;51.982;5.680;2023-11-19T07:52:37;19.3;16.8;11.5;5.1;;;;10.0;55.0;
78766;SPS30;68092;51.982;5.680;2023-11-19T07:55:05;17.7;15.5;10.7;5.0;;;;10.0;56.0;
78766;SPS30;68092;51.982;5.680;2023-11-19T07:57:35;22.4;19.5;13.2;5.7;;;;10.0;56.0;
78766;SPS30;68092;51.982;5.680;2023-11-19T08:00:03;16.9;14.7;10.1;4.6;;;;10.0;56.0;
78766;SPS30;68092;51.982;5.680;2023-11-19T08:02:33;19.0;16.6;11.3;5.0;;;;10.0;56.0;
78766;SPS30;68092;51.982;5.680;2023-11-19T08:05:02;16.7;14.6;10.1;4.7;;;;11.0;55.0;
78766;SPS30;68092;51.982;5.680;2023-11-19T08:07:30;18.8;16.4;11.3;5.0;;;;11.0;53.0;
78766;SPS30;68092;51.982;5.680;2023-11-19T08:09:59;18.2;15.9;11.0;5.1;;;;11.0;52.0;
78766;SPS30;68092;51.982;5.680;2023-11-19T08:12:31;18.6;16.3;11.1;4.9;;;;11.0;52.0;
78766;SPS30;68092;51.982;5.680;2023-11-19T08:15:01;18.8;16.4;11.2;4.9;;;;11.0;53.0;
78766;SPS30;68092;51.982;5.680;2023-11-19T08:17:30;20.2;17.6;12.1;5.4;;;;11.0;52.0;
78766;SPS30;68092;51.982;5.680;2023-11-19T08:19:59;16.4;14.4;10.0;4.6;;;;11.0;52.0;
78766;SPS30;68092;51.982;5.680;2023-11-19T08:22:29;18.6;16.3;11.1;5.0;;;;11.0;57.0;
78766;SPS30;68092;51.982;5.680;2023-11-19T08:24:59;21.5;18.7;12.8;5.6;;;;11.0;58.0;
78766;SPS30;68092;51.982;5.680;2023-11-19T08:27:29;20.9;18.2;12.5;5.6;;;;11.0;58.0;
78766;SPS30;68092;51.982;5.680;2023-11-19T08:29:57;18.0;15.7;10.9;5.0;;;;11.0;59.0;
78766;SPS30;68092;51.982;5.680;2023-11-19T08:32:26;17.5;15.4;10.7;5.0;;;;11.0;58.0;
78766;SPS30;68092;51.982;5.680;2023-11-19T08:34:55;18.2;16.0;11.0;5.1;;;;11.0;57.0;
78766;SPS30;68092;51.982;5.680;2023-11-19T08:37:24;18.3;16.0;11.0;5.0;;;;11.0;57.0;
78766;SPS30;68092;51.982;5.680;2023-11-19T08:39:53;18.0;15.7;10.8;4.9;;;;11.0;57.0;
78766;SPS30;68092;51.982;5.680;2023-11-19T08:42:24;15.5;13.6;9.5;4.6;;;;11.0;58.0;
78766;SPS30;68092;51.982;5.680;2023-11-19T08:44:55;18.6;16.3;11.2;5.2;;;;11.0;60.0;
78766;SPS30;68092;51.982;5.680;2023-11-19T08:47:26;15.9;13.9;9.6;4.4;;;;11.0;61.0;
78766;SPS30;68092;51.982;5.680;2023-11-19T08:49:54;19.1;16.6;11.2;4.8;;;;11.0;61.0;
78766;SPS30;68092;51.982;5.680;2023-11-19T08:52:23;17.4;15.2;10.3;4.5;;;;11.0;59.0;
78766;SPS30;68092;51.982;5.680;2023-11-19T08:54:51;15.9;13.9;9.5;4.3;;;;11.0;60.0;
78766;SPS30;68092;51.982;5.680;2023-11-19T08:57:20;16.2;14.1;9.7;4.4;;;;11.0;59.0;
78766;SPS30;68092;51.982;5.680;2023-11-19T08:59:48;19.1;16.7;11.4;5.1;;;;11.0;59.0;
78766;SPS30;68092;51.982;5.680;2023-11-19T09:02:17;20.2;17.5;11.7;4.7;;;;11.0;57.0;
78766;SPS30;68092;51.982;5.680;2023-11-19T09:04:45;18.4;16.0;10.7;4.4;;;;11.0;55.0;
78766;SPS30;68092;51.982;5.680;2023-11-19T09:07:14;15.9;13.9;9.6;4.4;;;;11.0;55.0;
78766;SPS30;68092;51.982;5.680;2023-11-19T09:09:42;17.0;14.9;10.2;4.6;;;;11.0;55.0;
78766;SPS30;68092;51.982;5.680;2023-11-19T09:12:11;17.6;15.4;10.7;4.9;;;;11.0;55.0;
78766;SPS30;68092;51.982;5.680;2023-11-19T09:14:40;16.0;14.1;9.8;4.6;;;;11.0;56.0;
78766;SPS30;68092;51.982;5.680;2023-11-19T09:17:09;18.4;16.1;11.0;5.0;;;;11.0;54.0;
78766;SPS30;68092;51.982;5.680;2023-11-19T09:19:38;17.5;15.3;10.5;4.7;;;;11.0;55.0;
78766;SPS30;68092;51.982;5.680;2023-11-19T09:22:06;17.4;15.2;10.4;4.6;;;;11.0;61.0;
78766;SPS30;68092;51.982;5.680;2023-11-19T09:24:35;17.8;15.5;10.5;4.6;;;;11.0;66.0;
78766;SPS30;68092;51.982;5.680;2023-11-19T09:27:04;17.9;15.7;10.8;4.9;;;;10.0;63.0;
78766;SPS30;68092;51.982;5.680;2023-11-19T09:29:33;16.9;14.7;9.9;4.3;;;;10.0;65.0;
78766;SPS30;68092;51.982;5.680;2023-11-19T09:32:01;18.6;16.2;11.1;5.0;;;;10.0;63.0;
78766;SPS30;68092;51.982;5.680;2023-11-19T09:34:30;17.3;15.1;10.4;4.7;;;;10.0;59.0;
78766;SPS30;68092;51.982;5.680;2023-11-19T09:36:59;20.4;17.7;12.0;5.2;;;;10.0;58.0;
78766;SPS30;68092;51.982;5.680;2023-11-19T09:39:28;19.7;17.1;11.5;4.8;;;;10.0;55.0;
78766;SPS30;68092;51.982;5.680;2023-11-19T09:41:56;18.8;16.4;11.2;5.0;;;;10.0;54.0;
78766;SPS30;68092;51.982;5.680;2023-11-19T09:44:25;17.5;15.3;10.5;4.7;;;;10.0;54.0;
78766;SPS30;68092;51.982;5.680;2023-11-19T09:46:55;16.5;14.4;10.0;4.6;;;;10.0;54.0;
78766;SPS30;68092;51.982;5.680;2023-11-19T09:49:27;17.0;14.8;10.0;4.3;;;;10.0;55.0;
78766;SPS30;68092;51.982;5.680;2023-11-19T09:51:57;20.4;17.8;12.1;5.2;;;;10.0;57.0;
78766;SPS30;68092;51.982;5.680;2023-11-19T09:54:26;19.9;17.3;11.7;5.0;;;;10.0;56.0;
78766;SPS30;68092;51.982;5.680;2023-11-19T09:56:54;21.0;18.2;12.3;5.2;;;;10.0;57.0;
78766;SPS30;68092;51.982;5.680;2023-11-19T09:59:29;16.7;14.6;9.9;4.3;;;;10.0;60.0;
78766;SPS30;68092;51.982;5.680;2023-11-19T10:01:59;17.6;15.4;10.6;4.9;;;;10.0;63.0;
78766;SPS30;68092;51.982;5.680;2023-11-19T10:04:29;17.0;14.9;10.2;4.6;;;;9.0;64.0;
78766;SPS30;68092;51.982;5.680;2023-11-19T10:06:58;18.9;16.5;11.4;5.2;;;;9.0;63.0;
78766;SPS30;68092;51.982;5.680;2023-11-19T10:09:26;17.0;14.8;10.2;4.6;;;;9.0;62.0;
78766;SPS30;68092;51.982;5.680;2023-11-19T10:11:55;18.8;16.4;11.3;5.1;;;;9.0;56.0;
78766;SPS30;68092;51.982;5.680;2023-11-19T10:14:24;19.2;16.8;11.5;5.2;;;;9.0;52.0;
78766;SPS30;68092;51.982;5.680;2023-11-19T10:16:56;19.5;17.0;11.7;5.3;;;;9.0;49.0;
78766;SPS30;68092;51.982;5.680;2023-11-19T10:19:25;19.1;16.8;11.6;5.4;;;;9.0;50.0;
78766;SPS30;68092;51.982;5.680;2023-11-19T10:21:55;17.5;15.2;10.4;4.7;;;;10.0;54.0;
78766;SPS30;68092;51.982;5.680;2023-11-19T10:24:32;18.8;16.4;11.2;5.0;;;;10.0;64.0;
78766;SPS30;68092;51.982;5.680;2023-11-19T10:27:04;15.8;13.8;9.5;4.3;;;;9.0;62.0;
78766;SPS30;68092;51.982;5.680;2023-11-19T10:29:35;15.8;13.8;9.5;4.3;;;;9.0;72.0;
78766;SPS30;68092;51.982;5.680;2023-11-19T10:32:04;16.0;13.9;9.5;4.2;;;;9.0;64.0;
78766;SPS30;68092;51.982;5.680;2023-11-19T10:34:33;17.6;15.3;10.4;4.6;;;;9.0;60.0;
78766;SPS30;68092;51.982;5.680;2023-11-19T10:37:03;15.7;13.7;9.4;4.2;;;;9.0;60.0;
78766;SPS30;68092;51.982;5.680;2023-11-19T10:39:37;16.2;14.1;9.6;4.3;;;;9.0;61.0;
78766;SPS30;68092;51.982;5.680;2023-11-19T10:42:22;18.2;15.8;10.7;4.5;;;;9.0;61.0;
78766;SPS30;68092;51.982;5.680;2023-11-19T10:44:51;18.1;15.8;10.9;5.0;;;;9.0;61.0;
78766;SPS30;68092;51.982;5.680;2023-11-19T10:47:20;13.6;11.9;8.2;3.8;;;;9.0;61.0;
78766;SPS30;68092;51.982;5.680;2023-11-19T10:49:51;16.5;14.4;9.9;4.4;;;;9.0;60.0;
78766;SPS30;68092;51.982;5.680;2023-11-19T10:52:22;16.0;13.9;9.6;4.3;;;;9.0;60.0;
78766;SPS30;68092;51.982;5.680;2023-11-19T10:54:53;14.7;12.9;8.8;4.0;;;;9.0;56.0;
78766;SPS30;68092;51.982;5.680;2023-11-19T10:57:28;17.9;15.6;10.6;4.6;;;;9.0;50.0;
78766;SPS30;68092;51.982;5.680;2023-11-19T11:00:02;18.5;16.1;11.0;4.8;;;;9.0;50.0;
78766;SPS30;68092;51.982;5.680;2023-11-19T11:02:36;16.9;14.7;10.0;4.3;;;;9.0;50.0;
78766;SPS30;68092;51.982;5.680;2023-11-19T11:05:11;17.1;15.0;10.3;4.8;;;;9.0;52.0;
78766;SPS30;68092;51.982;5.680;2023-11-19T11:07:44;17.4;15.2;10.3;4.6;;;;9.0;54.0;
78766;SPS30;68092;51.982;5.680;2023-11-19T11:10:13;16.6;14.5;9.9;4.5;;;;9.0;62.0;
78766;SPS30;68092;51.982;5.680;2023-11-19T11:12:44;17.3;15.1;10.4;4.8;;;;9.0;63.0;
78766;SPS30;68092;51.982;5.680;2023-11-19T11:15:16;13.9;12.2;8.5;4.0;;;;9.0;58.0;
78766;SPS30;68092;51.982;5.680;2023-11-19T11:17:48;18.1;15.8;10.8;4.9;;;;9.0;56.0;
78766;SPS30;68092;51.982;5.680;2023-11-19T11:20:18;17.7;15.4;10.6;4.8;;;;9.0;55.0;
78766;SPS30;68092;51.982;5.680;2023-11-19T11:22:49;16.4;14.3;9.8;4.5;;;;9.0;54.0;
78766;SPS30;68092;51.982;5.680;2023-11-19T11:25:34;15.7;13.7;9.4;4.3;;;;9.0;56.0;
78766;SPS30;68092;51.982;5.680;2023-11-19T11:28:16;18.0;15.8;10.9;5.1;;;;9.0;55.0;
78766;SPS30;68092;51.982;5.680;2023-11-19T11:31:08;17.9;15.6;10.7;4.7;;;;9.0;55.0;
78766;SPS30;68092;51.982;5.680;2023-11-19T11:33:53;18.3;15.9;10.9;4.9;;;;9.0;56.0;
78766;SPS30;68092;51.982;5.680;2023-11-19T11:36:39;19.9;17.3;11.8;5.1;;;;9.0;58.0;
78766;SPS30;68092;51.982;5.680;2023-11-19T11:39:18;17.9;15.7;10.7;4.8;;;;9.0;56.0;
78766;SPS30;68092;51.982;5.680;2023-11-19T11:42:06;14.9;13.0;9.1;4.2;;;;9.0;53.0;
78766;SPS30;68092;51.982;5.680;2023-11-19T11:45:00;15.8;13.8;9.5;4.3;;;;9.0;54.0;
78766;SPS30;68092;51.982;5.680;2023-11-19T11:48:02;17.8;15.6;10.7;4.8;;;;9.0;55.0;
78766;SPS30;68092;51.982;5.680;2023-11-19T11:50:34;15.2;13.4;9.4;4.6;;;;9.0;55.0;
78766;SPS30;68092;51.982;5.680;2023-11-19T11:53:15;18.0;15.8;10.9;5.0;;;;9.0;57.0;
78766;SPS30;68092;51.982;5.680;2023-11-19T11:55:54;15.5;13.5;9.3;4.2;;;;9.0;57.0;
78766;SPS30;68092;51.982;5.680;2023-11-19T11:58:27;15.6;13.6;9.3;4.1;;;;9.0;56.0;
78766;SPS30;68092;51.982;5.680;2023-11-19T12:01:00;13.5;11.8;8.2;3.8;;;;9.0;55.0;
78766;SPS30;68092;51.982;5.680;2023-11-19T12:03:31;13.5;11.9;8.3;3.9;;;;9.0;50.0;